sensor_id;sensor_type;location;lat;lon;timestamp;pressure;altitude;pressure_sealevel;temperature;humidity
10700;BME280;5401;41.986;21.452;2023-02-11T00:01:28;100316.81;;;0.68;52.10
10700;BME280;5401;41.986;21.452;2023-02-11T00:03:56;100320.38;;;0.67;51.97
10700;BME280;5401;41.986;21.452;2023-02-11T00:06:25;100305.44;;;0.55;51.88
10700;BME280;5401;41.986;21.452;2023-02-11T00:08:54;100319.13;;;0.60;52.01
10700;BME280;5401;41.986;21.452;2023-02-11T00:11:23;100311.13;;;0.49;51.91
10700;BME280;5401;41.986;21.452;2023-02-11T00:13:55;100319.53;;;0.54;52.07
10700;BME280;5401;41.986;21.452;2023-02-11T00:16:24;100324.91;;;0.52;52.08
10700;BME280;5401;41.986;21.452;2023-02-11T00:18:52;100317.88;;;0.53;51.89
10700;BME280;5401;41.986;21.452;2023-02-11T00:21:21;100321.66;;;0.49;52.20
10700;BME280;5401;41.986;21.452;2023-02-11T00:23:49;100334.69;;;0.50;52.15
10700;BME280;5401;41.986;21.452;2023-02-11T00:26:19;100335.66;;;0.49;51.94
10700;BME280;5401;41.986;21.452;2023-02-11T00:28:48;100330.72;;;0.45;51.97
10700;BME280;5401;41.986;21.452;2023-02-11T00:31:17;100335.13;;;0.44;52.34
10700;BME280;5401;41.986;21.452;2023-02-11T00:33:46;100329.22;;;0.41;52.18
10700;BME280;5401;41.986;21.452;2023-02-11T00:36:16;100323.31;;;0.37;52.00
10700;BME280;5401;41.986;21.452;2023-02-11T00:38:43;100330.47;;;0.35;52.41
10700;BME280;5401;41.986;21.452;2023-02-11T00:41:12;100322.66;;;0.34;52.47
10700;BME280;5401;41.986;21.452;2023-02-11T00:43:40;100329.06;;;0.30;52.38
10700;BME280;5401;41.986;21.452;2023-02-11T00:46:08;100321.69;;;0.23;52.53
10700;BME280;5401;41.986;21.452;2023-02-11T00:48:36;100333.47;;;0.17;52.29
10700;BME280;5401;41.986;21.452;2023-02-11T00:51:05;100310.56;;;0.05;52.62
10700;BME280;5401;41.986;21.452;2023-02-11T00:53:34;100331.06;;;0.14;52.65
10700;BME280;5401;41.986;21.452;2023-02-11T00:56:02;100328.69;;;0.10;52.60
10700;BME280;5401;41.986;21.452;2023-02-11T00:58:30;100322.91;;;0.05;52.94
10700;BME280;5401;41.986;21.452;2023-02-11T01:00:58;100334.53;;;0.15;52.82
10700;BME280;5401;41.986;21.452;2023-02-11T01:03:25;100325.88;;;0.13;52.65
10700;BME280;5401;41.986;21.452;2023-02-11T01:05:53;100329.16;;;0.16;52.76
10700;BME280;5401;41.986;21.452;2023-02-11T01:08:22;100315.78;;;0.19;52.88
10700;BME280;5401;41.986;21.452;2023-02-11T01:10:54;100315.69;;;0.21;52.65
10700;BME280;5401;41.986;21.452;2023-02-11T01:13:22;100323.69;;;0.19;52.85
10700;BME280;5401;41.986;21.452;2023-02-11T01:15:50;100326.41;;;0.18;52.75
10700;BME280;5401;41.986;21.452;2023-02-11T01:18:17;100319.56;;;0.15;52.94
10700;BME280;5401;41.986;21.452;2023-02-11T01:20:45;100310.91;;;0.13;52.90
10700;BME280;5401;41.986;21.452;2023-02-11T01:23:12;100308.38;;;0.12;53.07
10700;BME280;5401;41.986;21.452;2023-02-11T01:25:41;100307.75;;;0.08;53.05
10700;BME280;5401;41.986;21.452;2023-02-11T01:28:15;100317.31;;;0.09;53.36
10700;BME280;5401;41.986;21.452;2023-02-11T01:30:42;100320.06;;;0.08;53.05
10700;BME280;5401;41.986;21.452;2023-02-11T01:33:10;100311.41;;;0.06;53.27
10700;BME280;5401;41.986;21.452;2023-02-11T01:35:37;100310.66;;;0.04;53.32
10700;BME280;5401;41.986;21.452;2023-02-11T01:38:05;100316.69;;;0.06;53.31
10700;BME280;5401;41.986;21.452;2023-02-11T01:40:33;100319.78;;;0.12;53.11
10700;BME280;5401;41.986;21.452;2023-02-11T01:43:02;100305.13;;;0.08;53.19
10700;BME280;5401;41.986;21.452;2023-02-11T01:45:54;100314.56;;;-0.01;53.35
10700;BME280;5401;41.986;21.452;2023-02-11T01:48:26;100315.88;;;-0.08;53.24
10700;BME280;5401;41.986;21.452;2023-02-11T01:50:59;100304.84;;;-0.13;53.39
10700;BME280;5401;41.986;21.452;2023-02-11T01:53:28;100302.19;;;-0.13;53.50
10700;BME280;5401;41.986;21.452;2023-02-11T01:56:17;100300.63;;;-0.16;53.70
10700;BME280;5401;41.986;21.452;2023-02-11T01:59:09;100302.38;;;-0.16;53.34
10700;BME280;5401;41.986;21.452;2023-02-11T02:01:41;100302.28;;;-0.15;53.36
10700;BME280;5401;41.986;21.452;2023-02-11T02:04:16;100305.44;;;-0.22;53.66
10700;BME280;5401;41.986;21.452;2023-02-11T02:06:48;100305.72;;;-0.27;53.63
10700;BME280;5401;41.986;21.452;2023-02-11T02:09:21;100300.22;;;-0.36;53.75
10700;BME280;5401;41.986;21.452;2023-02-11T02:11:49;100305.28;;;-0.47;53.79
10700;BME280;5401;41.986;21.452;2023-02-11T02:14:19;100291.69;;;-0.53;53.98
10700;BME280;5401;41.986;21.452;2023-02-11T02:16:46;100310.78;;;-0.64;54.27
10700;BME280;5401;41.986;21.452;2023-02-11T02:19:37;100319.94;;;-0.97;54.33
10700;BME280;5401;41.986;21.452;2023-02-11T02:22:40;100314.28;;;-1.18;54.40
10700;BME280;5401;41.986;21.452;2023-02-11T02:28:25;100312.88;;;-1.10;54.84
10700;BME280;5401;41.986;21.452;2023-02-11T02:31:23;100312.03;;;-0.97;54.87
10700;BME280;5401;41.986;21.452;2023-02-11T02:33:54;100318.44;;;-0.87;54.84
10700;BME280;5401;41.986;21.452;2023-02-11T02:36:30;100310.25;;;-0.82;54.44
10700;BME280;5401;41.986;21.452;2023-02-11T02:39:04;100316.56;;;-0.85;54.53
10700;BME280;5401;41.986;21.452;2023-02-11T02:41:34;100310.34;;;-0.84;54.67
10700;BME280;5401;41.986;21.452;2023-02-11T02:44:03;100312.50;;;-0.76;54.38
10700;BME280;5401;41.986;21.452;2023-02-11T02:46:33;100311.53;;;-0.75;54.37
10700;BME280;5401;41.986;21.452;2023-02-11T02:49:02;100312.59;;;-0.78;54.45
10700;BME280;5401;41.986;21.452;2023-02-11T02:54:46;100309.22;;;-0.80;54.32
10700;BME280;5401;41.986;21.452;2023-02-11T02:57:28;100312.88;;;-0.82;54.38
10700;BME280;5401;41.986;21.452;2023-02-11T03:00:06;100315.88;;;-0.88;54.42
10700;BME280;5401;41.986;21.452;2023-02-11T03:02:43;100318.69;;;-0.91;54.44
10700;BME280;5401;41.986;21.452;2023-02-11T03:05:22;100310.72;;;-0.90;54.50
10700;BME280;5401;41.986;21.452;2023-02-11T03:07:57;100316.81;;;-0.89;54.29
10700;BME280;5401;41.986;21.452;2023-02-11T03:10:29;100313.44;;;-0.91;54.33
10700;BME280;5401;41.986;21.452;2023-02-11T03:12:58;100307.53;;;-0.95;54.20
10700;BME280;5401;41.986;21.452;2023-02-11T03:15:30;100312.41;;;-0.89;54.15
10700;BME280;5401;41.986;21.452;2023-02-11T03:17:59;100316.94;;;-0.91;53.96
10700;BME280;5401;41.986;21.452;2023-02-11T03:20:31;100305.66;;;-0.93;54.21
10700;BME280;5401;41.986;21.452;2023-02-11T03:23:05;100309.13;;;-0.92;54.25
10700;BME280;5401;41.986;21.452;2023-02-11T03:25:39;100286.97;;;-1.02;54.59
10700;BME280;5401;41.986;21.452;2023-02-11T03:28:13;100303.28;;;-0.97;54.41
10700;BME280;5401;41.986;21.452;2023-02-11T03:30:46;100303.03;;;-0.93;54.45
10700;BME280;5401;41.986;21.452;2023-02-11T03:33:19;100308.84;;;-0.88;54.51
10700;BME280;5401;41.986;21.452;2023-02-11T03:35:53;100287.06;;;-1.04;54.25
10700;BME280;5401;41.986;21.452;2023-02-11T03:38:25;100309.59;;;-1.00;54.29
10700;BME280;5401;41.986;21.452;2023-02-11T03:40:56;100302.84;;;-1.04;54.40
10700;BME280;5401;41.986;21.452;2023-02-11T03:43:27;100310.34;;;-1.11;54.67
10700;BME280;5401;41.986;21.452;2023-02-11T03:45:57;100310.44;;;-1.13;54.48
10700;BME280;5401;41.986;21.452;2023-02-11T03:48:30;100305.28;;;-1.14;54.71
10700;BME280;5401;41.986;21.452;2023-02-11T03:51:02;100304.44;;;-1.15;55.02
10700;BME280;5401;41.986;21.452;2023-02-11T03:53:31;100305.19;;;-1.13;55.14
10700;BME280;5401;41.986;21.452;2023-02-11T03:56:00;100297.56;;;-1.17;54.83
10700;BME280;5401;41.986;21.452;2023-02-11T03:58:29;100301.97;;;-1.18;55.00
10700;BME280;5401;41.986;21.452;2023-02-11T04:00:57;100299.56;;;-1.21;55.22
10700;BME280;5401;41.986;21.452;2023-02-11T04:03:25;100303.03;;;-1.20;54.92
10700;BME280;5401;41.986;21.452;2023-02-11T04:05:52;100296.94;;;-1.21;55.20
10700;BME280;5401;41.986;21.452;2023-02-11T04:08:21;100303.09;;;-1.22;55.14
10700;BME280;5401;41.986;21.452;2023-02-11T04:10:49;100302.28;;;-1.22;55.15
10700;BME280;5401;41.986;21.452;2023-02-11T04:13:17;100312.78;;;-1.22;55.28
10700;BME280;5401;41.986;21.452;2023-02-11T04:15:45;100301.72;;;-1.27;55.33
10700;BME280;5401;41.986;21.452;2023-02-11T04:18:12;100305.47;;;-1.31;55.23
10700;BME280;5401;41.986;21.452;2023-02-11T04:20:40;100302.34;;;-1.38;55.48
10700;BME280;5401;41.986;21.452;2023-02-11T04:23:07;100313.31;;;-1.45;55.57
10700;BME280;5401;41.986;21.452;2023-02-11T04:25:36;100303.66;;;-1.44;55.25
10700;BME280;5401;41.986;21.452;2023-02-11T04:28:04;100293.16;;;-1.44;55.85
10700;BME280;5401;41.986;21.452;2023-02-11T04:30:31;100295.09;;;-1.48;55.76
10700;BME280;5401;41.986;21.452;2023-02-11T04:32:59;100298.69;;;-1.49;55.60
10700;BME280;5401;41.986;21.452;2023-02-11T04:35:26;100295.84;;;-1.46;55.83
10700;BME280;5401;41.986;21.452;2023-02-11T04:37:53;100293.16;;;-1.44;55.59
10700;BME280;5401;41.986;21.452;2023-02-11T04:40:21;100289.69;;;-1.45;55.67
10700;BME280;5401;41.986;21.452;2023-02-11T04:42:50;100296.06;;;-1.49;55.72
10700;BME280;5401;41.986;21.452;2023-02-11T04:45:17;100289.78;;;-1.46;56.04
10700;BME280;5401;41.986;21.452;2023-02-11T04:47:45;100294.94;;;-1.45;55.65
10700;BME280;5401;41.986;21.452;2023-02-11T04:50:12;100299.16;;;-1.42;55.89
10700;BME280;5401;41.986;21.452;2023-02-11T04:52:40;100298.97;;;-1.40;55.92
10700;BME280;5401;41.986;21.452;2023-02-11T04:55:07;100294.75;;;-1.42;55.83
10700;BME280;5401;41.986;21.452;2023-02-11T04:57:34;100305.09;;;-1.39;55.55
10700;BME280;5401;41.986;21.452;2023-02-11T05:00:04;100301.50;;;-1.38;55.58
10700;BME280;5401;41.986;21.452;2023-02-11T05:02:33;100304.13;;;-1.38;55.92
10700;BME280;5401;41.986;21.452;2023-02-11T05:05:00;100303.28;;;-1.39;55.90
10700;BME280;5401;41.986;21.452;2023-02-11T05:07:28;100305.16;;;-1.41;55.44
10700;BME280;5401;41.986;21.452;2023-02-11T05:09:55;100303.56;;;-1.43;55.54
10700;BME280;5401;41.986;21.452;2023-02-11T05:12:23;100315.94;;;-1.45;55.48
10700;BME280;5401;41.986;21.452;2023-02-11T05:14:50;100313.41;;;-1.46;55.76
10700;BME280;5401;41.986;21.452;2023-02-11T05:17:19;100307.41;;;-1.48;55.54
10700;BME280;5401;41.986;21.452;2023-02-11T05:19:46;100310.03;;;-1.48;55.32
10700;BME280;5401;41.986;21.452;2023-02-11T05:22:14;100313.59;;;-1.49;55.55
10700;BME280;5401;41.986;21.452;2023-02-11T05:24:41;100309.19;;;-1.49;55.87
10700;BME280;5401;41.986;21.452;2023-02-11T05:27:09;100316.13;;;-1.48;55.89
10700;BME280;5401;41.986;21.452;2023-02-11T05:29:36;100310.78;;;-1.46;55.84
10700;BME280;5401;41.986;21.452;2023-02-11T05:32:04;100309.19;;;-1.49;55.63
10700;BME280;5401;41.986;21.452;2023-02-11T05:34:33;100305.06;;;-1.53;55.83
10700;BME280;5401;41.986;21.452;2023-02-11T05:37:01;100303.47;;;-1.55;55.90
10700;BME280;5401;41.986;21.452;2023-02-11T05:39:28;100305.88;;;-1.52;56.00
10700;BME280;5401;41.986;21.452;2023-02-11T05:41:56;100302.50;;;-1.54;55.52
10700;BME280;5401;41.986;21.452;2023-02-11T05:44:23;100306.16;;;-1.57;55.75
10700;BME280;5401;41.986;21.452;2023-02-11T05:46:51;100309.97;;;-1.33;55.85
10700;BME280;5401;41.986;21.452;2023-02-11T05:49:18;100310.72;;;-1.04;55.61
10700;BME280;5401;41.986;21.452;2023-02-11T05:51:48;100317.19;;;-0.68;55.46
10700;BME280;5401;41.986;21.452;2023-02-11T05:54:15;100324.22;;;-0.54;55.05
10700;BME280;5401;41.986;21.452;2023-02-11T05:56:43;100320.56;;;-0.26;54.91
10700;BME280;5401;41.986;21.452;2023-02-11T05:59:12;100320.22;;;0.19;54.54
10700;BME280;5401;41.986;21.452;2023-02-11T06:01:40;100319.75;;;0.51;54.33
10700;BME280;5401;41.986;21.452;2023-02-11T06:04:07;100320.19;;;0.70;53.79
10700;BME280;5401;41.986;21.452;2023-02-11T06:06:35;100320.00;;;1.09;53.64
10700;BME280;5401;41.986;21.452;2023-02-11T06:09:05;100328.66;;;1.59;53.48
10700;BME280;5401;41.986;21.452;2023-02-11T06:11:32;100324.16;;;2.08;53.08
10700;BME280;5401;41.986;21.452;2023-02-11T06:14:00;100323.91;;;2.57;52.31
10700;BME280;5401;41.986;21.452;2023-02-11T06:16:27;100307.13;;;2.90;51.98
10700;BME280;5401;41.986;21.452;2023-02-11T06:18:55;100319.19;;;3.49;51.44
10700;BME280;5401;41.986;21.452;2023-02-11T06:21:22;100302.66;;;3.89;51.17
10700;BME280;5401;41.986;21.452;2023-02-11T06:23:50;100319.09;;;4.45;50.57
10700;BME280;5401;41.986;21.452;2023-02-11T06:26:21;100319.69;;;4.89;49.63
10700;BME280;5401;41.986;21.452;2023-02-11T06:28:48;100312.06;;;5.25;49.38
10700;BME280;5401;41.986;21.452;2023-02-11T06:31:16;100306.94;;;5.32;49.13
10700;BME280;5401;41.986;21.452;2023-02-11T06:33:44;100299.28;;;5.68;48.79
10700;BME280;5401;41.986;21.452;2023-02-11T06:36:13;100303.84;;;5.96;48.46
10700;BME280;5401;41.986;21.452;2023-02-11T06:38:41;100311.03;;;6.33;47.97
10700;BME280;5401;41.986;21.452;2023-02-11T06:41:09;100301.78;;;6.74;47.86
10700;BME280;5401;41.986;21.452;2023-02-11T06:43:39;100305.53;;;7.00;47.29
10700;BME280;5401;41.986;21.452;2023-02-11T06:46:07;100298.06;;;7.58;46.10
10700;BME280;5401;41.986;21.452;2023-02-11T06:48:35;100283.47;;;8.06;46.34
10700;BME280;5401;41.986;21.452;2023-02-11T06:51:04;100305.94;;;8.82;45.69
10700;BME280;5401;41.986;21.452;2023-02-11T06:53:35;100297.13;;;9.32;44.86
10700;BME280;5401;41.986;21.452;2023-02-11T06:56:03;100296.94;;;9.59;44.24
10700;BME280;5401;41.986;21.452;2023-02-11T06:58:31;100276.22;;;9.27;43.08
10700;BME280;5401;41.986;21.452;2023-02-11T07:01:03;100284.88;;;9.55;42.85
10700;BME280;5401;41.986;21.452;2023-02-11T07:03:31;100289.47;;;10.03;43.10
10700;BME280;5401;41.986;21.452;2023-02-11T07:05:59;100289.31;;;10.04;42.42
10700;BME280;5401;41.986;21.452;2023-02-11T07:08:27;100287.44;;;9.97;42.88
10700;BME280;5401;41.986;21.452;2023-02-11T07:10:55;100283.47;;;9.76;42.37
10700;BME280;5401;41.986;21.452;2023-02-11T07:13:22;100277.09;;;9.36;43.75
10700;BME280;5401;41.986;21.452;2023-02-11T07:15:50;100271.19;;;8.82;43.15
10700;BME280;5401;41.986;21.452;2023-02-11T07:18:19;100264.81;;;9.00;44.11
10700;BME280;5401;41.986;21.452;2023-02-11T07:20:46;100263.50;;;8.79;44.05
10700;BME280;5401;41.986;21.452;2023-02-11T07:23:13;100264.03;;;8.40;45.09
10700;BME280;5401;41.986;21.452;2023-02-11T07:25:41;100269.50;;;8.21;45.68
10700;BME280;5401;41.986;21.452;2023-02-11T07:28:08;100267.22;;;8.26;44.66
10700;BME280;5401;41.986;21.452;2023-02-11T07:30:36;100261.03;;;8.43;44.97
10700;BME280;5401;41.986;21.452;2023-02-11T07:33:03;100272.53;;;8.61;45.56
10700;BME280;5401;41.986;21.452;2023-02-11T07:35:32;100275.13;;;8.36;45.01
10700;BME280;5401;41.986;21.452;2023-02-11T07:38:00;100254.28;;;8.05;45.03
10700;BME280;5401;41.986;21.452;2023-02-11T07:40:28;100262.06;;;7.98;45.48
10700;BME280;5401;41.986;21.452;2023-02-11T07:42:56;100267.47;;;8.06;45.90
10700;BME280;5401;41.986;21.452;2023-02-11T07:45:24;100259.75;;;8.03;45.43
10700;BME280;5401;41.986;21.452;2023-02-11T07:47:51;100256.25;;;8.03;45.24
10700;BME280;5401;41.986;21.452;2023-02-11T07:50:18;100251.84;;;7.94;46.24
10700;BME280;5401;41.986;21.452;2023-02-11T07:52:48;100240.91;;;7.70;45.72
10700;BME280;5401;41.986;21.452;2023-02-11T07:55:15;100225.78;;;7.61;45.56
10700;BME280;5401;41.986;21.452;2023-02-11T07:57:43;100248.69;;;7.54;45.58
10700;BME280;5401;41.986;21.452;2023-02-11T08:00:11;100248.56;;;7.56;45.52
10700;BME280;5401;41.986;21.452;2023-02-11T08:02:39;100239.19;;;7.69;45.74
10700;BME280;5401;41.986;21.452;2023-02-11T08:05:07;100228.81;;;7.76;46.21
10700;BME280;5401;41.986;21.452;2023-02-11T08:07:34;100218.88;;;7.85;45.57
10700;BME280;5401;41.986;21.452;2023-02-11T08:10:04;100224.63;;;8.08;45.70
10700;BME280;5401;41.986;21.452;2023-02-11T08:12:32;100214.13;;;8.06;45.91
10700;BME280;5401;41.986;21.452;2023-02-11T08:14:59;100224.59;;;8.17;45.96
10700;BME280;5401;41.986;21.452;2023-02-11T08:17:27;100224.97;;;8.39;44.61
10700;BME280;5401;41.986;21.452;2023-02-11T08:19:54;100234.09;;;8.54;45.63
10700;BME280;5401;41.986;21.452;2023-02-11T08:22:22;100233.00;;;8.64;44.86
10700;BME280;5401;41.986;21.452;2023-02-11T08:24:49;100241.94;;;8.73;45.38
10700;BME280;5401;41.986;21.452;2023-02-11T08:27:18;100235.72;;;8.89;45.04
10700;BME280;5401;41.986;21.452;2023-02-11T08:29:45;100242.34;;;8.86;44.16
10700;BME280;5401;41.986;21.452;2023-02-11T08:32:13;100242.03;;;8.88;44.40
10700;BME280;5401;41.986;21.452;2023-02-11T08:34:40;100235.56;;;8.91;44.77
10700;BME280;5401;41.986;21.452;2023-02-11T08:37:08;100223.75;;;8.76;44.89
10700;BME280;5401;41.986;21.452;2023-02-11T08:39:35;100232.09;;;8.73;44.73
10700;BME280;5401;41.986;21.452;2023-02-11T08:42:03;100228.81;;;8.62;43.93
10700;BME280;5401;41.986;21.452;2023-02-11T08:44:32;100236.94;;;8.53;44.04
10700;BME280;5401;41.986;21.452;2023-02-11T08:46:59;100226.19;;;8.45;44.95
10700;BME280;5401;41.986;21.452;2023-02-11T08:49:27;100241.81;;;8.40;45.12
10700;BME280;5401;41.986;21.452;2023-02-11T08:51:55;100231.53;;;8.27;44.48
10700;BME280;5401;41.986;21.452;2023-02-11T08:54:27;100237.84;;;8.09;44.12
10700;BME280;5401;41.986;21.452;2023-02-11T08:56:54;100231.09;;;7.88;45.20
10700;BME280;5401;41.986;21.452;2023-02-11T08:59:22;100235.28;;;7.90;44.82
10700;BME280;5401;41.986;21.452;2023-02-11T09:01:51;100227.59;;;8.05;44.33
10700;BME280;5401;41.986;21.452;2023-02-11T09:04:19;100221.69;;;8.11;44.38
10700;BME280;5401;41.986;21.452;2023-02-11T09:06:46;100220.69;;;8.12;44.10
10700;BME280;5401;41.986;21.452;2023-02-11T09:09:14;100217.78;;;8.05;44.54
10700;BME280;5401;41.986;21.452;2023-02-11T09:11:43;100215.25;;;8.04;45.13
10700;BME280;5401;41.986;21.452;2023-02-11T09:14:16;100216.94;;;8.05;44.92
10700;BME280;5401;41.986;21.452;2023-02-11T09:16:44;100223.72;;;7.99;44.61
10700;BME280;5401;41.986;21.452;2023-02-11T09:19:13;100220.34;;;7.97;44.18
10700;BME280;5401;41.986;21.452;2023-02-11T09:21:41;100211.16;;;7.92;43.94
10700;BME280;5401;41.986;21.452;2023-02-11T09:24:08;100213.00;;;8.09;43.99
10700;BME280;5401;41.986;21.452;2023-02-11T09:26:37;100206.72;;;8.00;44.69
10700;BME280;5401;41.986;21.452;2023-02-11T09:29:05;100205.03;;;7.99;44.89
10700;BME280;5401;41.986;21.452;2023-02-11T09:31:33;100196.16;;;8.08;44.67
10700;BME280;5401;41.986;21.452;2023-02-11T09:34:03;100191.91;;;8.32;43.69
10700;BME280;5401;41.986;21.452;2023-02-11T09:36:34;100180.69;;;8.29;43.71
10700;BME280;5401;41.986;21.452;2023-02-11T09:39:05;100193.47;;;8.43;43.79
10700;BME280;5401;41.986;21.452;2023-02-11T09:41:40;100186.97;;;8.62;43.44
10700;BME280;5401;41.986;21.452;2023-02-11T09:44:17;100182.50;;;8.71;44.03
10700;BME280;5401;41.986;21.452;2023-02-11T09:46:49;100176.69;;;8.75;43.80
10700;BME280;5401;41.986;21.452;2023-02-11T09:49:24;100172.19;;;8.76;42.89
10700;BME280;5401;41.986;21.452;2023-02-11T09:52:02;100171.59;;;8.89;44.06
10700;BME280;5401;41.986;21.452;2023-02-11T09:54:36;100167.25;;;8.88;43.52
10700;BME280;5401;41.986;21.452;2023-02-11T09:57:08;100158.06;;;8.83;43.33
10700;BME280;5401;41.986;21.452;2023-02-11T09:59:36;100154.81;;;8.97;43.08
10700;BME280;5401;41.986;21.452;2023-02-11T10:02:08;100150.03;;;9.16;43.47
10700;BME280;5401;41.986;21.452;2023-02-11T10:04:49;100154.97;;;9.36;43.58
10700;BME280;5401;41.986;21.452;2023-02-11T10:07:36;100151.75;;;9.33;42.75
10700;BME280;5401;41.986;21.452;2023-02-11T10:10:16;100141.41;;;9.30;42.68
10700;BME280;5401;41.986;21.452;2023-02-11T10:13:00;100139.75;;;9.37;42.06
10700;BME280;5401;41.986;21.452;2023-02-11T10:15:41;100124.41;;;9.47;42.74
10700;BME280;5401;41.986;21.452;2023-02-11T10:18:25;100120.13;;;9.61;42.22
10700;BME280;5401;41.986;21.452;2023-02-11T10:21:07;100112.28;;;9.68;42.43
10700;BME280;5401;41.986;21.452;2023-02-11T10:23:42;100096.41;;;9.74;41.91
10700;BME280;5401;41.986;21.452;2023-02-11T10:26:13;100096.75;;;9.79;41.83
10700;BME280;5401;41.986;21.452;2023-02-11T10:28:43;100092.25;;;9.96;42.23
10700;BME280;5401;41.986;21.452;2023-02-11T10:31:15;100083.94;;;10.06;41.66
10700;BME280;5401;41.986;21.452;2023-02-11T10:33:45;100085.94;;;10.12;41.61
10700;BME280;5401;41.986;21.452;2023-02-11T10:36:16;100076.72;;;10.07;41.11
10700;BME280;5401;41.986;21.452;2023-02-11T10:38:45;100077.22;;;10.10;41.05
10700;BME280;5401;41.986;21.452;2023-02-11T10:41:16;100056.97;;;10.24;41.46
10700;BME280;5401;41.986;21.452;2023-02-11T10:43:44;100058.63;;;10.40;40.66
10700;BME280;5401;41.986;21.452;2023-02-11T10:46:16;100054.06;;;10.57;40.62
10700;BME280;5401;41.986;21.452;2023-02-11T10:48:46;100049.81;;;10.70;40.43
10700;BME280;5401;41.986;21.452;2023-02-11T10:51:19;100045.28;;;10.78;40.27
10700;BME280;5401;41.986;21.452;2023-02-11T10:53:50;100039.59;;;10.81;40.16
10700;BME280;5401;41.986;21.452;2023-02-11T10:56:26;100018.66;;;10.85;40.17
10700;BME280;5401;41.986;21.452;2023-02-11T10:58:57;100029.47;;;10.99;39.76
10700;BME280;5401;41.986;21.452;2023-02-11T11:01:40;100018.50;;;11.08;39.52
10700;BME280;5401;41.986;21.452;2023-02-11T11:04:31;100007.28;;;11.13;39.36
10700;BME280;5401;41.986;21.452;2023-02-11T11:07:11;100000.81;;;11.30;39.07
10700;BME280;5401;41.986;21.452;2023-02-11T11:09:47;99994.72;;;11.43;39.16
10700;BME280;5401;41.986;21.452;2023-02-11T11:12:35;99989.19;;;11.59;39.01
10700;BME280;5401;41.986;21.452;2023-02-11T11:15:15;99977.25;;;11.70;38.73
10700;BME280;5401;41.986;21.452;2023-02-11T11:17:43;99965.78;;;11.76;38.29
10700;BME280;5401;41.986;21.452;2023-02-11T11:20:29;99978.44;;;11.81;38.12
10700;BME280;5401;41.986;21.452;2023-02-11T11:23:09;99956.63;;;11.84;38.20
10700;BME280;5401;41.986;21.452;2023-02-11T11:25:44;99959.25;;;11.92;38.33
10700;BME280;5401;41.986;21.452;2023-02-11T11:28:25;99952.88;;;12.08;37.94
10700;BME280;5401;41.986;21.452;2023-02-11T11:30:55;99949.66;;;12.12;38.06
10700;BME280;5401;41.986;21.452;2023-02-11T11:33:25;99950.97;;;12.16;37.45
10700;BME280;5401;41.986;21.452;2023-02-11T11:36:00;99953.09;;;12.20;37.33
10700;BME280;5401;41.986;21.452;2023-02-11T11:38:29;99941.53;;;12.20;37.25
10700;BME280;5401;41.986;21.452;2023-02-11T11:41:18;99934.38;;;11.98;37.60
10700;BME280;5401;41.986;21.452;2023-02-11T11:43:54;99935.75;;;11.94;37.78
10700;BME280;5401;41.986;21.452;2023-02-11T11:46:27;99929.66;;;12.00;38.01
10700;BME280;5401;41.986;21.452;2023-02-11T11:49:02;99932.78;;;12.04;37.48
10700;BME280;5401;41.986;21.452;2023-02-11T11:51:32;99921.59;;;12.00;37.77
10700;BME280;5401;41.986;21.452;2023-02-11T11:54:03;99931.78;;;12.05;37.02
10700;BME280;5401;41.986;21.452;2023-02-11T11:56:40;99924.53;;;12.05;37.26
10700;BME280;5401;41.986;21.452;2023-02-11T11:59:14;99911.03;;;11.99;37.11
10700;BME280;5401;41.986;21.452;2023-02-11T12:01:51;99913.53;;;12.00;37.54
10700;BME280;5401;41.986;21.452;2023-02-11T12:04:39;99911.28;;;12.04;37.03
10700;BME280;5401;41.986;21.452;2023-02-11T12:07:17;99907.97;;;12.02;36.71
10700;BME280;5401;41.986;21.452;2023-02-11T12:10:00;99900.38;;;12.05;36.42
10700;BME280;5401;41.986;21.452;2023-02-11T12:12:39;99898.72;;;12.04;36.74
10700;BME280;5401;41.986;21.452;2023-02-11T12:15:21;99891.31;;;12.06;36.09
10700;BME280;5401;41.986;21.452;2023-02-11T12:18:02;99881.59;;;12.05;36.10
10700;BME280;5401;41.986;21.452;2023-02-11T12:20:38;99880.22;;;12.09;36.65
10700;BME280;5401;41.986;21.452;2023-02-11T12:23:31;99873.19;;;12.08;35.65
10700;BME280;5401;41.986;21.452;2023-02-11T12:26:12;99869.75;;;12.14;35.67
10700;BME280;5401;41.986;21.452;2023-02-11T12:28:54;99874.50;;;11.98;36.58
10700;BME280;5401;41.986;21.452;2023-02-11T12:31:51;99867.53;;;12.03;36.32
10700;BME280;5401;41.986;21.452;2023-02-11T12:37:25;99852.63;;;12.15;36.26
10700;BME280;5401;41.986;21.452;2023-02-11T12:40:02;99850.50;;;12.11;36.31
10700;BME280;5401;41.986;21.452;2023-02-11T12:42:50;99846.59;;;12.13;36.13
10700;BME280;5401;41.986;21.452;2023-02-11T12:46:08;99845.88;;;12.05;35.66
10700;BME280;5401;41.986;21.452;2023-02-11T12:48:58;99851.16;;;11.98;35.81
10700;BME280;5401;41.986;21.452;2023-02-11T12:51:43;99837.09;;;11.96;35.97
10700;BME280;5401;41.986;21.452;2023-02-11T12:54:23;99842.28;;;11.98;36.09
10700;BME280;5401;41.986;21.452;2023-02-11T12:56:58;99841.59;;;11.81;35.72
10700;BME280;5401;41.986;21.452;2023-02-11T12:59:35;99832.28;;;11.77;35.58
10700;BME280;5401;41.986;21.452;2023-02-11T13:02:16;99823.28;;;11.71;35.83
10700;BME280;5401;41.986;21.452;2023-02-11T13:04:48;99820.03;;;11.61;35.69
10700;BME280;5401;41.986;21.452;2023-02-11T13:07:22;99819.53;;;11.43;35.64
10700;BME280;5401;41.986;21.452;2023-02-11T13:09:55;99804.34;;;11.36;35.56
10700;BME280;5401;41.986;21.452;2023-02-11T13:12:26;99816.38;;;11.39;35.71
10700;BME280;5401;41.986;21.452;2023-02-11T13:15:14;99814.47;;;11.48;35.85
10700;BME280;5401;41.986;21.452;2023-02-11T13:17:50;99812.06;;;11.53;35.67
10700;BME280;5401;41.986;21.452;2023-02-11T13:20:27;99805.88;;;11.52;35.66
10700;BME280;5401;41.986;21.452;2023-02-11T13:23:05;99812.78;;;11.47;35.47
10700;BME280;5401;41.986;21.452;2023-02-11T13:25:39;99799.09;;;11.42;35.20
10700;BME280;5401;41.986;21.452;2023-02-11T13:28:19;99797.59;;;11.39;35.22
10700;BME280;5401;41.986;21.452;2023-02-11T13:30:49;99794.72;;;11.41;35.51